sensor_id;sensor_type;location;lat;lon;timestamp;pressure;altitude;pressure_sealevel;temperature;humidity
48892;BME280;50130;52.150;5.236;2023-02-18T00:01:00;102008.0;;;11.87;98.51
48892;BME280;50130;52.150;5.236;2023-02-18T00:02:37;102008.0;;;11.8;98.56
48892;BME280;50130;52.150;5.236;2023-02-18T00:04:14;102011.0;;;11.78;98.62
48892;BME280;50130;52.150;5.236;2023-02-18T00:05:51;102010.0;;;11.79;98.38
48892;BME280;50130;52.150;5.236;2023-02-18T00:09:10;102006.0;;;11.82;98.38
48892;BME280;50130;52.150;5.236;2023-02-18T00:10:46;102000.0;;;11.86;98.59
48892;BME280;50130;52.150;5.236;2023-02-18T00:12:23;102003.0;;;11.81;98.51
48892;BME280;50130;52.150;5.236;2023-02-18T00:15:38;102008.0;;;11.87;98.19
48892;BME280;50130;52.150;5.236;2023-02-18T00:17:15;102006.0;;;11.91;98.06
48892;BME280;50130;52.150;5.236;2023-02-18T00:18:54;102009.0;;;11.8;98.45
48892;BME280;50130;52.150;5.236;2023-02-18T00:20:32;102006.0;;;11.82;98.45
48892;BME280;50130;52.150;5.236;2023-02-18T00:23:45;101998.0;;;11.79;98.38
48892;BME280;50130;52.150;5.236;2023-02-18T00:25:22;101997.0;;;11.79;98.83
48892;BME280;50130;52.150;5.236;2023-02-18T00:26:58;102003.0;;;11.77;98.67
48892;BME280;50130;52.150;5.236;2023-02-18T00:30:12;102001.0;;;11.77;98.53
48892;BME280;50130;52.150;5.236;2023-02-18T00:31:48;101994.0;;;11.79;98.59
48892;BME280;50130;52.150;5.236;2023-02-18T00:33:25;101992.0;;;11.78;98.46
48892;BME280;50130;52.150;5.236;2023-02-18T00:36:39;101984.0;;;11.73;98.71
48892;BME280;50130;52.150;5.236;2023-02-18T00:38:16;101988.0;;;11.73;98.73
48892;BME280;50130;52.150;5.236;2023-02-18T00:39:52;101985.0;;;11.71;98.84
48892;BME280;50130;52.150;5.236;2023-02-18T00:41:30;101989.0;;;11.7;99.06
48892;BME280;50130;52.150;5.236;2023-02-18T00:44:43;101985.0;;;11.64;98.96
48892;BME280;50130;52.150;5.236;2023-02-18T00:46:20;101989.0;;;11.76;98.54
48892;BME280;50130;52.150;5.236;2023-02-18T00:47:57;101983.0;;;11.83;98.0
48892;BME280;50130;52.150;5.236;2023-02-18T00:51:10;101986.0;;;11.68;98.73
48892;BME280;50130;52.150;5.236;2023-02-18T00:52:47;101982.0;;;11.54;99.22
48892;BME280;50130;52.150;5.236;2023-02-18T00:54:23;101977.0;;;11.52;99.37
48892;BME280;50130;52.150;5.236;2023-02-18T00:57:36;101972.0;;;11.57;99.57
48892;BME280;50130;52.150;5.236;2023-02-18T00:59:12;101975.0;;;11.42;99.82
48892;BME280;50130;52.150;5.236;2023-02-18T01:00:49;101969.0;;;11.51;99.77
48892;BME280;50130;52.150;5.236;2023-02-18T01:02:26;101975.0;;;11.39;100.0
48892;BME280;50130;52.150;5.236;2023-02-18T01:05:40;101975.0;;;11.34;100.0
48892;BME280;50130;52.150;5.236;2023-02-18T01:07:17;101977.0;;;11.29;100.0
48892;BME280;50130;52.150;5.236;2023-02-18T01:08:54;101963.0;;;11.25;100.0
48892;BME280;50130;52.150;5.236;2023-02-18T01:12:09;101965.0;;;11.27;100.0
48892;BME280;50130;52.150;5.236;2023-02-18T01:13:45;101970.0;;;11.41;100.0
48892;BME280;50130;52.150;5.236;2023-02-18T01:15:22;101966.0;;;11.42;100.0
48892;BME280;50130;52.150;5.236;2023-02-18T01:16:59;101968.0;;;11.48;100.0
48892;BME280;50130;52.150;5.236;2023-02-18T01:20:13;101967.0;;;11.41;100.0
48892;BME280;50130;52.150;5.236;2023-02-18T01:21:50;101974.0;;;11.3;100.0
48892;BME280;50130;52.150;5.236;2023-02-18T01:23:27;101974.0;;;11.31;100.0
48892;BME280;50130;52.150;5.236;2023-02-18T01:26:40;101966.0;;;11.28;100.0
48892;BME280;50130;52.150;5.236;2023-02-18T01:28:18;101969.0;;;11.15;100.0
48892;BME280;50130;52.150;5.236;2023-02-18T01:29:54;101967.0;;;11.19;100.0
48892;BME280;50130;52.150;5.236;2023-02-18T01:33:07;101962.0;;;11.0;100.0
48892;BME280;50130;52.150;5.236;2023-02-18T01:34:43;101950.0;;;10.87;100.0
48892;BME280;50130;52.150;5.236;2023-02-18T01:36:20;101955.0;;;10.92;100.0
48892;BME280;50130;52.150;5.236;2023-02-18T01:37:56;101950.0;;;11.05;100.0
48892;BME280;50130;52.150;5.236;2023-02-18T01:41:09;101939.0;;;11.08;100.0
48892;BME280;50130;52.150;5.236;2023-02-18T01:42:46;101940.0;;;11.03;100.0
48892;BME280;50130;52.150;5.236;2023-02-18T01:44:25;101946.0;;;11.18;100.0
48892;BME280;50130;52.150;5.236;2023-02-18T01:47:50;101944.0;;;11.22;100.0
48892;BME280;50130;52.150;5.236;2023-02-18T01:49:29;101941.0;;;11.08;100.0
48892;BME280;50130;52.150;5.236;2023-02-18T01:51:10;101945.0;;;11.02;100.0
48892;BME280;50130;52.150;5.236;2023-02-18T01:52:49;101940.0;;;11.03;100.0
48892;BME280;50130;52.150;5.236;2023-02-18T01:56:10;101941.0;;;11.09;100.0
48892;BME280;50130;52.150;5.236;2023-02-18T01:57:49;101938.0;;;11.13;100.0
48892;BME280;50130;52.150;5.236;2023-02-18T01:59:27;101936.0;;;11.0;100.0
48892;BME280;50130;52.150;5.236;2023-02-18T02:01:08;101928.0;;;11.07;100.0
48892;BME280;50130;52.150;5.236;2023-02-18T02:04:22;101930.0;;;11.02;100.0
48892;BME280;50130;52.150;5.236;2023-02-18T02:06:00;101924.0;;;10.95;100.0
48892;BME280;50130;52.150;5.236;2023-02-18T02:07:38;101920.0;;;10.97;100.0
48892;BME280;50130;52.150;5.236;2023-02-18T02:09:18;101919.0;;;11.03;100.0
48892;BME280;50130;52.150;5.236;2023-02-18T02:12:59;101914.0;;;10.99;100.0
48892;BME280;50130;52.150;5.236;2023-02-18T02:14:53;101907.0;;;10.85;100.0
48892;BME280;50130;52.150;5.236;2023-02-18T02:17:03;101903.0;;;11.01;100.0
48892;BME280;50130;52.150;5.236;2023-02-18T02:18:52;101897.0;;;10.87;100.0
48892;BME280;50130;52.150;5.236;2023-02-18T02:20:59;101893.0;;;10.86;100.0
48892;BME280;50130;52.150;5.236;2023-02-18T02:25:09;101871.0;;;11.04;100.0
48892;BME280;50130;52.150;5.236;2023-02-18T02:27:22;101860.0;;;11.02;100.0
48892;BME280;50130;52.150;5.236;2023-02-18T02:29:16;101855.0;;;10.95;100.0
48892;BME280;50130;52.150;5.236;2023-02-18T02:31:28;101856.0;;;11.01;100.0
48892;BME280;50130;52.150;5.236;2023-02-18T02:35:26;101842.0;;;11.19;100.0
48892;BME280;50130;52.150;5.236;2023-02-18T02:37:11;101833.0;;;11.15;100.0
48892;BME280;50130;52.150;5.236;2023-02-18T02:38:55;101822.0;;;11.07;100.0
48892;BME280;50130;52.150;5.236;2023-02-18T02:42:25;101817.0;;;11.09;100.0
48892;BME280;50130;52.150;5.236;2023-02-18T02:44:13;101813.0;;;11.09;100.0
48892;BME280;50130;52.150;5.236;2023-02-18T02:45:57;101806.0;;;11.08;100.0
48892;BME280;50130;52.150;5.236;2023-02-18T02:47:43;101805.0;;;11.14;100.0
48892;BME280;50130;52.150;5.236;2023-02-18T02:49:34;101799.0;;;11.11;100.0
48892;BME280;50130;52.150;5.236;2023-02-18T02:51:18;101797.0;;;11.16;100.0
48892;BME280;50130;52.150;5.236;2023-02-18T02:54:41;101790.0;;;11.06;100.0
48892;BME280;50130;52.150;5.236;2023-02-18T02:56:19;101791.0;;;11.05;100.0
48892;BME280;50130;52.150;5.236;2023-02-18T02:57:57;101793.0;;;11.25;100.0
48892;BME280;50130;52.150;5.236;2023-02-18T02:59:35;101785.0;;;11.21;100.0
48892;BME280;50130;52.150;5.236;2023-02-18T03:03:19;101780.0;;;11.18;100.0
48892;BME280;50130;52.150;5.236;2023-02-18T03:05:23;101780.0;;;11.09;100.0
48892;BME280;50130;52.150;5.236;2023-02-18T03:07:14;101777.0;;;11.1;100.0
48892;BME280;50130;52.150;5.236;2023-02-18T03:09:14;101767.0;;;11.14;100.0
48892;BME280;50130;52.150;5.236;2023-02-18T03:11:02;101774.0;;;11.23;100.0
48892;BME280;50130;52.150;5.236;2023-02-18T03:12:45;101775.0;;;11.16;100.0
48892;BME280;50130;52.150;5.236;2023-02-18T03:14:27;101771.0;;;11.08;100.0
48892;BME280;50130;52.150;5.236;2023-02-18T03:17:57;101767.0;;;11.13;100.0
48892;BME280;50130;52.150;5.236;2023-02-18T03:19:39;101766.0;;;11.2;100.0
48892;BME280;50130;52.150;5.236;2023-02-18T03:21:24;101763.0;;;11.09;100.0
48892;BME280;50130;52.150;5.236;2023-02-18T03:23:08;101765.0;;;11.18;100.0
48892;BME280;50130;52.150;5.236;2023-02-18T03:24:54;101755.0;;;11.09;100.0
48892;BME280;50130;52.150;5.236;2023-02-18T03:28:17;101759.0;;;11.15;100.0
48892;BME280;50130;52.150;5.236;2023-02-18T03:29:56;101745.0;;;11.25;100.0
48892;BME280;50130;52.150;5.236;2023-02-18T03:31:38;101745.0;;;11.32;100.0
48892;BME280;50130;52.150;5.236;2023-02-18T03:33:24;101731.0;;;11.32;100.0
48892;BME280;50130;52.150;5.236;2023-02-18T03:35:14;101728.0;;;11.33;100.0
48892;BME280;50130;52.150;5.236;2023-02-18T03:38:33;101727.0;;;11.31;100.0
48892;BME280;50130;52.150;5.236;2023-02-18T03:40:12;101721.0;;;11.36;100.0
48892;BME280;50130;52.150;5.236;2023-02-18T03:41:50;101717.0;;;11.41;100.0
48892;BME280;50130;52.150;5.236;2023-02-18T03:43:27;101705.0;;;11.29;100.0
48892;BME280;50130;52.150;5.236;2023-02-18T03:46:43;101705.0;;;11.29;100.0
48892;BME280;50130;52.150;5.236;2023-02-18T03:48:20;101702.0;;;11.34;100.0
48892;BME280;50130;52.150;5.236;2023-02-18T03:49:56;101703.0;;;11.3;100.0
48892;BME280;50130;52.150;5.236;2023-02-18T03:53:08;101703.0;;;11.35;100.0
48892;BME280;50130;52.150;5.236;2023-02-18T03:54:44;101701.0;;;11.25;100.0
48892;BME280;50130;52.150;5.236;2023-02-18T03:56:21;101691.0;;;11.43;100.0
48892;BME280;50130;52.150;5.236;2023-02-18T03:59:34;101699.0;;;11.38;100.0
48892;BME280;50130;52.150;5.236;2023-02-18T04:01:10;101692.0;;;11.44;100.0
48892;BME280;50130;52.150;5.236;2023-02-18T04:02:46;101684.0;;;11.45;100.0
48892;BME280;50130;52.150;5.236;2023-02-18T04:04:22;101680.0;;;11.42;100.0
48892;BME280;50130;52.150;5.236;2023-02-18T04:07:35;101681.0;;;11.48;100.0
48892;BME280;50130;52.150;5.236;2023-02-18T04:09:11;101676.0;;;11.36;100.0
48892;BME280;50130;52.150;5.236;2023-02-18T04:10:49;101677.0;;;11.4;100.0
48892;BME280;50130;52.150;5.236;2023-02-18T04:14:02;101673.0;;;11.37;100.0
48892;BME280;50130;52.150;5.236;2023-02-18T04:15:39;101667.0;;;11.32;100.0
48892;BME280;50130;52.150;5.236;2023-02-18T04:17:15;101662.0;;;11.33;100.0
48892;BME280;50130;52.150;5.236;2023-02-18T04:20:27;101660.0;;;11.37;100.0
48892;BME280;50130;52.150;5.236;2023-02-18T04:22:04;101659.0;;;11.39;100.0
48892;BME280;50130;52.150;5.236;2023-02-18T04:23:40;101661.0;;;11.37;100.0
48892;BME280;50130;52.150;5.236;2023-02-18T04:25:17;101660.0;;;11.41;100.0
48892;BME280;50130;52.150;5.236;2023-02-18T04:28:30;101645.0;;;11.35;100.0
48892;BME280;50130;52.150;5.236;2023-02-18T04:30:07;101647.0;;;11.28;100.0
48892;BME280;50130;52.150;5.236;2023-02-18T04:34:55;101645.0;;;11.15;100.0
48892;BME280;50130;52.150;5.236;2023-02-18T04:36:32;101639.0;;;11.32;100.0
48892;BME280;50130;52.150;5.236;2023-02-18T04:38:09;101644.0;;;11.32;100.0
48892;BME280;50130;52.150;5.236;2023-02-18T04:42:58;101643.0;;;11.4;100.0
48892;BME280;50130;52.150;5.236;2023-02-18T04:44:35;101636.0;;;11.36;100.0
48892;BME280;50130;52.150;5.236;2023-02-18T04:46:12;101627.0;;;11.41;100.0
48892;BME280;50130;52.150;5.236;2023-02-18T04:49:24;101618.0;;;11.47;100.0
48892;BME280;50130;52.150;5.236;2023-02-18T04:51:01;101613.0;;;11.39;100.0
48892;BME280;50130;52.150;5.236;2023-02-18T04:52:39;101617.0;;;11.46;100.0
48892;BME280;50130;52.150;5.236;2023-02-18T04:55:51;101616.0;;;11.42;100.0
48892;BME280;50130;52.150;5.236;2023-02-18T04:57:29;101607.0;;;11.26;100.0
48892;BME280;50130;52.150;5.236;2023-02-18T04:59:05;101601.0;;;11.34;100.0
48892;BME280;50130;52.150;5.236;2023-02-18T05:02:17;101594.0;;;11.33;100.0
48892;BME280;50130;52.150;5.236;2023-02-18T05:03:53;101610.0;;;11.37;100.0
48892;BME280;50130;52.150;5.236;2023-02-18T05:05:30;101614.0;;;11.3;100.0
48892;BME280;50130;52.150;5.236;2023-02-18T05:07:06;101614.0;;;11.35;100.0
48892;BME280;50130;52.150;5.236;2023-02-18T05:10:18;101610.0;;;11.29;100.0
48892;BME280;50130;52.150;5.236;2023-02-18T05:11:54;101607.0;;;11.35;100.0
48892;BME280;50130;52.150;5.236;2023-02-18T05:13:30;101606.0;;;11.37;100.0
48892;BME280;50130;52.150;5.236;2023-02-18T05:16:44;101605.0;;;11.42;100.0
48892;BME280;50130;52.150;5.236;2023-02-18T05:19:57;101613.0;;;11.34;100.0
48892;BME280;50130;52.150;5.236;2023-02-18T05:23:09;101607.0;;;11.34;100.0
48892;BME280;50130;52.150;5.236;2023-02-18T05:24:45;101600.0;;;11.28;100.0
48892;BME280;50130;52.150;5.236;2023-02-18T05:26:21;101605.0;;;11.38;100.0
48892;BME280;50130;52.150;5.236;2023-02-18T05:27:58;101594.0;;;11.35;100.0
48892;BME280;50130;52.150;5.236;2023-02-18T05:31:10;101593.0;;;11.35;100.0
48892;BME280;50130;52.150;5.236;2023-02-18T05:32:47;101584.0;;;11.34;100.0
48892;BME280;50130;52.150;5.236;2023-02-18T05:34:23;101586.0;;;11.41;100.0
48892;BME280;50130;52.150;5.236;2023-02-18T05:37:35;101580.0;;;11.45;100.0
48892;BME280;50130;52.150;5.236;2023-02-18T05:39:11;101581.0;;;11.4;100.0
48892;BME280;50130;52.150;5.236;2023-02-18T05:40:47;101580.0;;;11.29;100.0
48892;BME280;50130;52.150;5.236;2023-02-18T05:44:32;101570.0;;;11.31;100.0
48892;BME280;50130;52.150;5.236;2023-02-18T05:46:09;101574.0;;;11.38;100.0
48892;BME280;50130;52.150;5.236;2023-02-18T05:47:45;101562.0;;;11.5;100.0
48892;BME280;50130;52.150;5.236;2023-02-18T05:52:34;101577.0;;;11.48;100.0
48892;BME280;50130;52.150;5.236;2023-02-18T05:54:10;101567.0;;;11.5;100.0
48892;BME280;50130;52.150;5.236;2023-02-18T05:55:46;101562.0;;;11.51;100.0
48892;BME280;50130;52.150;5.236;2023-02-18T05:57:23;101564.0;;;11.52;100.0
48892;BME280;50130;52.150;5.236;2023-02-18T06:00:36;101546.0;;;11.46;100.0
48892;BME280;50130;52.150;5.236;2023-02-18T06:02:12;101546.0;;;11.4;100.0
48892;BME280;50130;52.150;5.236;2023-02-18T06:03:48;101559.0;;;11.46;100.0
48892;BME280;50130;52.150;5.236;2023-02-18T06:07:00;101566.0;;;11.38;100.0
48892;BME280;50130;52.150;5.236;2023-02-18T06:08:36;101573.0;;;11.53;100.0
48892;BME280;50130;52.150;5.236;2023-02-18T06:10:12;101567.0;;;11.44;100.0
48892;BME280;50130;52.150;5.236;2023-02-18T06:13:25;101562.0;;;11.42;100.0
48892;BME280;50130;52.150;5.236;2023-02-18T06:15:01;101556.0;;;11.53;100.0
48892;BME280;50130;52.150;5.236;2023-02-18T06:16:37;101561.0;;;11.54;100.0
48892;BME280;50130;52.150;5.236;2023-02-18T06:18:13;101568.0;;;11.4;100.0
48892;BME280;50130;52.150;5.236;2023-02-18T06:21:25;101558.0;;;11.43;100.0
48892;BME280;50130;52.150;5.236;2023-02-18T06:23:01;101570.0;;;11.58;100.0
48892;BME280;50130;52.150;5.236;2023-02-18T06:24:38;101560.0;;;11.64;100.0
48892;BME280;50130;52.150;5.236;2023-02-18T06:27:50;101565.0;;;11.58;100.0
48892;BME280;50130;52.150;5.236;2023-02-18T06:29:29;101578.0;;;11.59;100.0
48892;BME280;50130;52.150;5.236;2023-02-18T06:31:05;101563.0;;;11.59;100.0
48892;BME280;50130;52.150;5.236;2023-02-18T06:34:18;101563.0;;;11.64;100.0
48892;BME280;50130;52.150;5.236;2023-02-18T06:35:56;101564.0;;;11.6;100.0
48892;BME280;50130;52.150;5.236;2023-02-18T06:37:33;101562.0;;;11.61;100.0
48892;BME280;50130;52.150;5.236;2023-02-18T06:39:08;101561.0;;;11.57;100.0
48892;BME280;50130;52.150;5.236;2023-02-18T06:42:22;101566.0;;;11.49;100.0
48892;BME280;50130;52.150;5.236;2023-02-18T06:43:58;101567.0;;;11.53;100.0
48892;BME280;50130;52.150;5.236;2023-02-18T06:45:37;101569.0;;;11.55;100.0
48892;BME280;50130;52.150;5.236;2023-02-18T06:48:49;101568.0;;;11.6;100.0
48892;BME280;50130;52.150;5.236;2023-02-18T06:50:27;101578.0;;;11.47;100.0
48892;BME280;50130;52.150;5.236;2023-02-18T06:52:03;101574.0;;;11.55;100.0
48892;BME280;50130;52.150;5.236;2023-02-18T06:55:16;101576.0;;;11.47;100.0
48892;BME280;50130;52.150;5.236;2023-02-18T06:56:52;101565.0;;;11.48;100.0
48892;BME280;50130;52.150;5.236;2023-02-18T06:58:29;101562.0;;;11.47;100.0
48892;BME280;50130;52.150;5.236;2023-02-18T07:00:06;101571.0;;;11.46;100.0
48892;BME280;50130;52.150;5.236;2023-02-18T07:03:19;101569.0;;;11.39;100.0
48892;BME280;50130;52.150;5.236;2023-02-18T07:04:55;101562.0;;;11.5;100.0
48892;BME280;50130;52.150;5.236;2023-02-18T07:06:31;101565.0;;;11.54;100.0
48892;BME280;50130;52.150;5.236;2023-02-18T07:09:44;101566.0;;;11.58;100.0
48892;BME280;50130;52.150;5.236;2023-02-18T07:11:21;101558.0;;;11.51;100.0
48892;BME280;50130;52.150;5.236;2023-02-18T07:12:57;101569.0;;;11.39;100.0
48892;BME280;50130;52.150;5.236;2023-02-18T07:16:10;101551.0;;;11.39;100.0
48892;BME280;50130;52.150;5.236;2023-02-18T07:17:46;101566.0;;;11.48;100.0
48892;BME280;50130;52.150;5.236;2023-02-18T07:19:22;101568.0;;;11.34;100.0
48892;BME280;50130;52.150;5.236;2023-02-18T07:20:58;101568.0;;;11.27;100.0
48892;BME280;50130;52.150;5.236;2023-02-18T07:24:11;101569.0;;;11.32;100.0
48892;BME280;50130;52.150;5.236;2023-02-18T07:25:47;101570.0;;;11.35;100.0
48892;BME280;50130;52.150;5.236;2023-02-18T07:27:23;101568.0;;;11.36;100.0
48892;BME280;50130;52.150;5.236;2023-02-18T07:30:37;101571.0;;;11.33;100.0
48892;BME280;50130;52.150;5.236;2023-02-18T07:32:14;101564.0;;;11.26;100.0
48892;BME280;50130;52.150;5.236;2023-02-18T07:33:52;101565.0;;;11.39;100.0
48892;BME280;50130;52.150;5.236;2023-02-18T07:37:08;101553.0;;;11.36;100.0
48892;BME280;50130;52.150;5.236;2023-02-18T07:38:45;101556.0;;;11.29;100.0
48892;BME280;50130;52.150;5.236;2023-02-18T07:40:21;101556.0;;;11.42;100.0
48892;BME280;50130;52.150;5.236;2023-02-18T07:41:57;101559.0;;;11.34;100.0
48892;BME280;50130;52.150;5.236;2023-02-18T07:45:10;101538.0;;;11.38;100.0
48892;BME280;50130;52.150;5.236;2023-02-18T07:46:46;101550.0;;;11.37;100.0
48892;BME280;50130;52.150;5.236;2023-02-18T07:48:22;101553.0;;;11.46;100.0
48892;BME280;50130;52.150;5.236;2023-02-18T07:51:35;101551.0;;;11.58;100.0
48892;BME280;50130;52.150;5.236;2023-02-18T07:53:12;101549.0;;;11.53;100.0
48892;BME280;50130;52.150;5.236;2023-02-18T07:54:50;101564.0;;;11.39;100.0
48892;BME280;50130;52.150;5.236;2023-02-18T07:58:02;101562.0;;;11.28;100.0
48892;BME280;50130;52.150;5.236;2023-02-18T07:59:38;101571.0;;;11.28;100.0
48892;BME280;50130;52.150;5.236;2023-02-18T08:01:15;101568.0;;;11.25;100.0
48892;BME280;50130;52.150;5.236;2023-02-18T08:02:51;101566.0;;;11.27;100.0
48892;BME280;50130;52.150;5.236;2023-02-18T08:06:04;101567.0;;;11.34;100.0
48892;BME280;50130;52.150;5.236;2023-02-18T08:07:41;101563.0;;;11.23;100.0
48892;BME280;50130;52.150;5.236;2023-02-18T08:09:17;101565.0;;;11.32;100.0
48892;BME280;50130;52.150;5.236;2023-02-18T08:12:34;101557.0;;;11.22;100.0
48892;BME280;50130;52.150;5.236;2023-02-18T08:14:11;101582.0;;;11.3;100.0
48892;BME280;50130;52.150;5.236;2023-02-18T08:15:47;101572.0;;;11.11;100.0
48892;BME280;50130;52.150;5.236;2023-02-18T08:19:02;101575.0;;;11.09;100.0
48892;BME280;50130;52.150;5.236;2023-02-18T08:20:39;101584.0;;;11.18;100.0
48892;BME280;50130;52.150;5.236;2023-02-18T08:22:15;101592.0;;;11.13;100.0
48892;BME280;50130;52.150;5.236;2023-02-18T08:23:51;101589.0;;;11.06;100.0
48892;BME280;50130;52.150;5.236;2023-02-18T08:27:04;101585.0;;;11.14;100.0
48892;BME280;50130;52.150;5.236;2023-02-18T08:28:41;101582.0;;;11.1;100.0
48892;BME280;50130;52.150;5.236;2023-02-18T08:30:18;101582.0;;;11.14;100.0
48892;BME280;50130;52.150;5.236;2023-02-18T08:33:32;101588.0;;;11.13;100.0
48892;BME280;50130;52.150;5.236;2023-02-18T08:35:09;101580.0;;;11.18;100.0
48892;BME280;50130;52.150;5.236;2023-02-18T08:36:46;101584.0;;;11.12;100.0
48892;BME280;50130;52.150;5.236;2023-02-18T08:38:23;101592.0;;;11.09;100.0
48892;BME280;50130;52.150;5.236;2023-02-18T08:41:36;101595.0;;;11.12;100.0
48892;BME280;50130;52.150;5.236;2023-02-18T08:43:14;101582.0;;;11.13;100.0
48892;BME280;50130;52.150;5.236;2023-02-18T08:44:51;101585.0;;;11.05;100.0
48892;BME280;50130;52.150;5.236;2023-02-18T08:48:03;101593.0;;;11.01;100.0
48892;BME280;50130;52.150;5.236;2023-02-18T08:49:40;101581.0;;;10.96;100.0
48892;BME280;50130;52.150;5.236;2023-02-18T08:51:19;101585.0;;;10.94;100.0
48892;BME280;50130;52.150;5.236;2023-02-18T08:54:37;101582.0;;;11.01;100.0
48892;BME280;50130;52.150;5.236;2023-02-18T08:56:14;101585.0;;;10.87;100.0
48892;BME280;50130;52.150;5.236;2023-02-18T08:57:51;101588.0;;;10.9;100.0
48892;BME280;50130;52.150;5.236;2023-02-18T08:59:27;101603.0;;;10.85;100.0
48892;BME280;50130;52.150;5.236;2023-02-18T09:02:43;101594.0;;;10.9;100.0
48892;BME280;50130;52.150;5.236;2023-02-18T09:04:20;101595.0;;;10.94;100.0
48892;BME280;50130;52.150;5.236;2023-02-18T09:05:57;101597.0;;;10.97;100.0
48892;BME280;50130;52.150;5.236;2023-02-18T09:09:12;101596.0;;;11.07;100.0
48892;BME280;50130;52.150;5.236;2023-02-18T09:10:48;101603.0;;;11.03;99.61
48892;BME280;50130;52.150;5.236;2023-02-18T09:12:24;101599.0;;;10.85;99.88
48892;BME280;50130;52.150;5.236;2023-02-18T09:14:02;101602.0;;;10.9;100.0
48892;BME280;50130;52.150;5.236;2023-02-18T09:17:14;101601.0;;;10.91;100.0
48892;BME280;50130;52.150;5.236;2023-02-18T09:18:50;101595.0;;;10.98;100.0
48892;BME280;50130;52.150;5.236;2023-02-18T09:20:27;101599.0;;;11.02;100.0
48892;BME280;50130;52.150;5.236;2023-02-18T09:23:39;101585.0;;;10.93;99.84
48892;BME280;50130;52.150;5.236;2023-02-18T09:25:15;101597.0;;;10.92;99.86
48892;BME280;50130;52.150;5.236;2023-02-18T09:26:51;101608.0;;;11.0;99.08
48892;BME280;50130;52.150;5.236;2023-02-18T09:30:05;101606.0;;;11.03;99.29
48892;BME280;50130;52.150;5.236;2023-02-18T09:31:42;101613.0;;;11.0;99.57
48892;BME280;50130;52.150;5.236;2023-02-18T09:33:19;101614.0;;;11.01;99.57
48892;BME280;50130;52.150;5.236;2023-02-18T09:34:55;101605.0;;;11.0;99.17
48892;BME280;50130;52.150;5.236;2023-02-18T09:38:08;101612.0;;;11.04;98.76
48892;BME280;50130;52.150;5.236;2023-02-18T09:39:47;101616.0;;;11.08;98.04
48892;BME280;50130;52.150;5.236;2023-02-18T09:41:30;101630.0;;;11.06;98.78
48892;BME280;50130;52.150;5.236;2023-02-18T09:43:23;101630.0;;;11.12;98.07
48892;BME280;50130;52.150;5.236;2023-02-18T09:46:50;101634.0;;;11.24;98.38
48892;BME280;50130;52.150;5.236;2023-02-18T09:48:31;101631.0;;;11.27;97.46
48892;BME280;50130;52.150;5.236;2023-02-18T09:50:16;101633.0;;;11.23;97.14
48892;BME280;50130;52.150;5.236;2023-02-18T09:52:02;101634.0;;;11.25;96.4
48892;BME280;50130;52.150;5.236;2023-02-18T09:53:42;101621.0;;;11.39;97.05
48892;BME280;50130;52.150;5.236;2023-02-18T09:57:00;101633.0;;;11.23;96.56
48892;BME280;50130;52.150;5.236;2023-02-18T09:58:38;101632.0;;;11.33;96.03
48892;BME280;50130;52.150;5.236;2023-02-18T10:00:19;101619.0;;;11.41;95.73
48892;BME280;50130;52.150;5.236;2023-02-18T10:03:36;101621.0;;;11.45;96.19
48892;BME280;50130;52.150;5.236;2023-02-18T10:05:14;101637.0;;;11.47;94.53
48892;BME280;50130;52.150;5.236;2023-02-18T10:06:52;101633.0;;;11.56;94.93
48892;BME280;50130;52.150;5.236;2023-02-18T10:08:31;101631.0;;;11.69;94.91
48892;BME280;50130;52.150;5.236;2023-02-18T10:11:57;101622.0;;;11.64;95.42
48892;BME280;50130;52.150;5.236;2023-02-18T10:13:40;101636.0;;;11.6;95.16
48892;BME280;50130;52.150;5.236;2023-02-18T10:15:20;101636.0;;;11.71;95.05
48892;BME280;50130;52.150;5.236;2023-02-18T10:16:58;101633.0;;;11.71;94.54
48892;BME280;50130;52.150;5.236;2023-02-18T10:20:19;101641.0;;;11.72;95.34
48892;BME280;50130;52.150;5.236;2023-02-18T10:22:01;101636.0;;;11.7;94.51
48892;BME280;50130;52.150;5.236;2023-02-18T10:23:52;101646.0;;;11.72;94.31
48892;BME280;50130;52.150;5.236;2023-02-18T10:25:30;101662.0;;;11.73;93.69
48892;BME280;50130;52.150;5.236;2023-02-18T10:27:15;101630.0;;;11.73;93.68
48892;BME280;50130;52.150;5.236;2023-02-18T10:30:39;101645.0;;;11.78;93.98
48892;BME280;50130;52.150;5.236;2023-02-18T10:32:21;101645.0;;;11.84;94.36
48892;BME280;50130;52.150;5.236;2023-02-18T10:34:02;101648.0;;;11.81;94.09
48892;BME280;50130;52.150;5.236;2023-02-18T10:35:48;101659.0;;;11.79;94.59
48892;BME280;50130;52.150;5.236;2023-02-18T10:39:40;101653.0;;;11.84;94.33
48892;BME280;50130;52.150;5.236;2023-02-18T10:41:28;101653.0;;;11.91;94.71
48892;BME280;50130;52.150;5.236;2023-02-18T10:43:15;101655.0;;;11.85;93.66
48892;BME280;50130;52.150;5.236;2023-02-18T10:45:04;101667.0;;;11.99;93.75
48892;BME280;50130;52.150;5.236;2023-02-18T10:46:52;101657.0;;;11.99;93.56
48892;BME280;50130;52.150;5.236;2023-02-18T10:48:52;101661.0;;;12.12;93.75
48892;BME280;50130;52.150;5.236;2023-02-18T10:50:36;101666.0;;;12.1;93.25
48892;BME280;50130;52.150;5.236;2023-02-18T10:52:17;101661.0;;;12.16;93.32
48892;BME280;50130;52.150;5.236;2023-02-18T10:55:35;101668.0;;;12.17;93.74
48892;BME280;50130;52.150;5.236;2023-02-18T10:57:16;101673.0;;;12.14;93.64
48892;BME280;50130;52.150;5.236;2023-02-18T10:59:00;101667.0;;;12.13;93.16
48892;BME280;50130;52.150;5.236;2023-02-18T11:00:40;101669.0;;;12.3;93.56
48892;BME280;50130;52.150;5.236;2023-02-18T11:04:05;101669.0;;;12.31;93.77
48892;BME280;50130;52.150;5.236;2023-02-18T11:05:43;101670.0;;;12.14;93.57
48892;BME280;50130;52.150;5.236;2023-02-18T11:07:23;101669.0;;;12.2;93.35
48892;BME280;50130;52.150;5.236;2023-02-18T11:09:01;101665.0;;;12.15;94.19
48892;BME280;50130;52.150;5.236;2023-02-18T11:12:21;101666.0;;;12.3;94.37
48892;BME280;50130;52.150;5.236;2023-02-18T11:14:00;101665.0;;;12.38;93.73
48892;BME280;50130;52.150;5.236;2023-02-18T11:15:54;101666.0;;;12.5;92.73
48892;BME280;50130;52.150;5.236;2023-02-18T11:17:32;101659.0;;;12.49;93.07